Time;durP1;ratioP1;P1;durP2;ratioP2;P2;SDS_P1;SDS_P2;PMS_P1;PMS_P2;Temp;Humidity;BMP_temperature;BMP_pressure;BME280_temperature;BME280_humidity;BME280_pressure;Samples;Min_cycle;Max_cycle;Signal;HPM_P1;HPM_P2
2023/12/19 00:00:28;;;;;;;2.20;1.40;;;;;;;;;;5106575;28;20196;-73
2023/12/19 00:02:53;;;;;;;1.50;1.40;;;;;;;;;;5107526;28;20359;-73
2023/12/19 00:05:19;;;;;;;1.40;1.30;;;;;;;;;;5107138;28;20272;-73
2023/12/19 00:07:45;;;;;;;1.30;1.20;;;;;;;;;;5111626;28;20168;-73
2023/12/19 00:10:11;;;;;;;1.60;1.50;;;;;;;;;;5104012;28;20349;-73
2023/12/19 00:12:37;;;;;;;1.60;1.50;;;;;;;;;;5107690;28;20608;-73
2023/12/19 00:15:02;;;;;;;1.30;1.23;;;;;;;;;;5103558;28;20168;-73
2023/12/19 00:17:27;;;;;;;1.37;1.20;;;;;;;;;;5106630;28;20180;-73
2023/12/19 00:19:52;;;;;;;1.50;1.37;;;;;;;;;;5106111;28;20172;-74
2023/12/19 00:22:17;;;;;;;2.13;1.70;;;;;;;;;;5111765;28;20180;-74
2023/12/19 00:24:43;;;;;;;1.30;1.20;;;;;;;;;;5093149;27;20171;-75
2023/12/19 00:27:08;;;;;;;1.93;1.53;;;;;;;;;;5111003;28;20255;-73
2023/12/19 00:29:33;;;;;;;3.73;1.53;;;;;;;;;;5109751;28;20171;-73
2023/12/19 00:31:58;;;;;;;3.90;1.33;;;;;;;;;;5108806;27;20227;-75
2023/12/19 00:34:23;;;;;;;1.53;1.43;;;;;;;;;;5108388;27;20180;-74
2023/12/19 00:36:50;;;;;;;1.63;1.53;;;;;;;;;;5111351;28;20275;-74
2023/12/19 00:39:15;;;;;;;1.30;1.20;;;;;;;;;;5089484;28;20179;-74
2023/12/19 00:41:40;;;;;;;0.83;0.83;;;;;;;;;;5110488;28;20180;-74
2023/12/19 00:44:05;;;;;;;1.00;1.00;;;;;;;;;;5092326;28;20179;-74
2023/12/19 00:46:30;;;;;;;1.30;1.17;;;;;;;;;;5111614;27;20180;-74
2023/12/19 00:48:56;;;;;;;0.97;0.93;;;;;;;;;;5106712;27;20177;-74
2023/12/19 00:51:21;;;;;;;2.10;1.20;;;;;;;;;;5109520;28;20271;-74
2023/12/19 00:53:47;;;;;;;2.63;1.63;;;;;;;;;;5109107;28;20177;-74
2023/12/19 00:56:12;;;;;;;2.00;1.47;;;;;;;;;;5094012;27;20172;-74
2023/12/19 00:58:38;;;;;;;1.53;1.20;;;;;;;;;;5109125;27;20202;-74
2023/12/19 01:01:04;;;;;;;2.07;1.10;;;;;;;;;;5092506;28;20176;-74
2023/12/19 01:03:29;;;;;;;1.50;1.37;;;;;;;;;;5091395;28;20189;-74
2023/12/19 01:05:54;;;;;;;1.20;1.10;;;;;;;;;;5107541;28;20184;-74
2023/12/19 01:08:19;;;;;;;0.80;0.80;;;;;;;;;;5089154;28;20190;-74
2023/12/19 01:10:44;;;;;;;1.33;1.23;;;;;;;;;;5110259;28;20214;-74
2023/12/19 01:13:10;;;;;;;0.93;0.80;;;;;;;;;;5091185;28;20291;-74
2023/12/19 01:15:35;;;;;;;1.77;1.10;;;;;;;;;;5108645;28;20381;-74
2023/12/19 01:18:00;;;;;;;0.90;0.90;;;;;;;;;;5110366;28;20172;-74
2023/12/19 01:20:26;;;;;;;0.80;0.80;;;;;;;;;;5090182;28;20211;-74
2023/12/19 01:22:51;;;;;;;0.83;0.83;;;;;;;;;;5111860;27;20182;-74
2023/12/19 01:25:16;;;;;;;1.20;1.10;;;;;;;;;;5106944;27;20219;-74
2023/12/19 01:27:42;;;;;;;0.90;0.90;;;;;;;;;;5108574;27;20176;-74
2023/12/19 01:30:07;;;;;;;0.90;0.90;;;;;;;;;;5092309;28;20180;-74
2023/12/19 01:32:32;;;;;;;0.80;0.80;;;;;;;;;;5091181;28;20196;-74
2023/12/19 01:34:57;;;;;;;0.70;0.70;;;;;;;;;;5106073;28;20172;-74
2023/12/19 01:37:23;;;;;;;1.27;0.60;;;;;;;;;;5091387;28;20196;-75
2023/12/19 01:39:48;;;;;;;0.70;0.70;;;;;;;;;;5110804;27;20168;-75
2023/12/19 01:42:13;;;;;;;1.03;0.93;;;;;;;;;;5107575;27;20176;-74
2023/12/19 01:44:38;;;;;;;0.70;0.70;;;;;;;;;;5104522;28;20279;-75
2023/12/19 01:47:03;;;;;;;0.87;0.87;;;;;;;;;;5107754;27;20171;-75
2023/12/19 01:49:29;;;;;;;1.00;0.80;;;;;;;;;;5090845;28;20190;-74
2023/12/19 01:51:54;;;;;;;0.60;0.60;;;;;;;;;;5112733;27;20200;-75
2023/12/19 01:54:20;;;;;;;2.33;0.93;;;;;;;;;;5089250;28;20201;-75
2023/12/19 01:56:46;;;;;;;1.13;0.90;;;;;;;;;;5102159;27;20179;-74
2023/12/19 01:59:12;;;;;;;0.60;0.60;;;;;;;;;;5112164;27;20171;-74
2023/12/19 02:01:37;;;;;;;0.70;0.70;;;;;;;;;;5110008;28;20178;-74
2023/12/19 02:04:03;;;;;;;0.80;0.80;;;;;;;;;;5091224;28;20180;-75
2023/12/19 02:06:31;;;;;;;1.07;0.93;;;;;;;;;;5101252;28;20260;-75
2023/12/19 02:08:57;;;;;;;0.80;0.80;;;;;;;;;;5090806;28;20208;-75
2023/12/19 02:11:22;;;;;;;0.60;0.60;;;;;;;;;;5116013;27;20204;-75
2023/12/19 02:13:47;;;;;;;1.60;0.87;;;;;;;;;;5114972;27;20277;-75
2023/12/19 02:16:13;;;;;;;0.70;0.70;;;;;;;;;;5109668;27;20176;-75
2023/12/19 02:18:38;;;;;;;0.80;0.80;;;;;;;;;;5109984;27;20164;-75
2023/12/19 02:21:04;;;;;;;0.70;0.70;;;;;;;;;;5096195;27;20183;-75
2023/12/19 02:23:29;;;;;;;0.77;0.77;;;;;;;;;;5089658;27;20184;-75
2023/12/19 02:25:55;;;;;;;0.70;0.70;;;;;;;;;;5083396;28;20184;-75
2023/12/19 02:28:20;;;;;;;0.80;0.80;;;;;;;;;;5104517;27;20237;-75
2023/12/19 02:30:46;;;;;;;0.60;0.60;;;;;;;;;;5113826;27;20163;-75
2023/12/19 02:33:11;;;;;;;0.80;0.80;;;;;;;;;;5094744;28;20221;-75
2023/12/19 02:35:36;;;;;;;0.50;0.50;;;;;;;;;;5108839;28;20229;-75
2023/12/19 02:38:01;;;;;;;0.97;0.80;;;;;;;;;;5113094;27;20195;-75
2023/12/19 02:40:26;;;;;;;0.77;0.70;;;;;;;;;;5108960;27;20207;-75
2023/12/19 02:42:52;;;;;;;0.60;0.60;;;;;;;;;;5113088;27;20183;-75
2023/12/19 02:45:17;;;;;;;0.50;0.50;;;;;;;;;;5115716;27;20180;-75
2023/12/19 02:47:42;;;;;;;0.70;0.70;;;;;;;;;;5095805;27;20171;-75
2023/12/19 02:50:08;;;;;;;0.67;0.60;;;;;;;;;;5104534;28;20226;-75
2023/12/19 02:52:33;;;;;;;0.60;0.60;;;;;;;;;;5106809;27;20913;-76
2023/12/19 02:54:58;;;;;;;0.77;0.60;;;;;;;;;;5114699;27;20185;-75
2023/12/19 02:57:23;;;;;;;0.60;0.60;;;;;;;;;;5099549;27;20228;-75
2023/12/19 02:59:49;;;;;;;0.63;0.60;;;;;;;;;;5110690;27;20171;-75
2023/12/19 03:02:14;;;;;;;1.73;0.83;;;;;;;;;;5089514;28;20309;-75
2023/12/19 03:04:39;;;;;;;0.77;0.70;;;;;;;;;;5090462;28;20176;-75
2023/12/19 03:07:05;;;;;;;0.60;0.60;;;;;;;;;;5101419;28;20180;-75
2023/12/19 03:09:30;;;;;;;1.10;1.00;;;;;;;;;;5113086;27;20213;-75
2023/12/19 03:11:59;;;;;;;1.33;0.90;;;;;;;;;;5095091;28;20335;-75
2023/12/19 03:14:24;;;;;;;1.80;1.40;;;;;;;;;;5102163;27;20183;-75
2023/12/19 03:16:49;;;;;;;1.00;1.00;;;;;;;;;;5111082;27;20171;-75
2023/12/19 03:19:14;;;;;;;1.27;1.10;;;;;;;;;;5106103;27;20176;-75
2023/12/19 03:21:39;;;;;;;2.33;1.00;;;;;;;;;;5111721;27;20199;-75
2023/12/19 03:24:05;;;;;;;1.27;1.17;;;;;;;;;;5115799;27;20167;-75
2023/12/19 03:26:30;;;;;;;0.90;0.90;;;;;;;;;;5110693;27;20176;-75
2023/12/19 03:28:55;;;;;;;0.97;0.90;;;;;;;;;;5117725;27;20258;-75
2023/12/19 03:31:20;;;;;;;0.97;0.93;;;;;;;;;;5109644;28;20192;-75
2023/12/19 03:33:46;;;;;;;1.57;1.47;;;;;;;;;;5110805;28;20221;-75
2023/12/19 03:36:11;;;;;;;1.40;1.30;;;;;;;;;;5106720;28;20184;-75
2023/12/19 03:38:36;;;;;;;0.90;0.90;;;;;;;;;;5110849;28;20183;-75
2023/12/19 03:41:01;;;;;;;1.37;1.27;;;;;;;;;;5102339;28;20168;-75
2023/12/19 03:43:26;;;;;;;1.23;1.13;;;;;;;;;;5110848;28;20225;-75
2023/12/19 03:45:54;;;;;;;1.77;1.43;;;;;;;;;;5113700;28;20168;-75
2023/12/19 03:48:19;;;;;;;2.37;1.70;;;;;;;;;;5111316;28;20164;-75
2023/12/19 03:50:44;;;;;;;1.73;1.47;;;;;;;;;;5107581;28;20179;-75
2023/12/19 03:53:10;;;;;;;1.65;1.50;;;;;;;;;;5116643;28;20203;-75
2023/12/19 03:55:35;;;;;;;2.53;1.60;;;;;;;;;;5116651;27;20181;-75
2023/12/19 03:58:00;;;;;;;1.93;1.63;;;;;;;;;;5110845;27;20271;-75
2023/12/19 04:00:25;;;;;;;1.53;1.43;;;;;;;;;;5115303;27;20164;-75
2023/12/19 04:02:51;;;;;;;1.87;1.30;;;;;;;;;;5097383;27;20179;-75
2023/12/19 04:05:16;;;;;;;1.60;1.50;;;;;;;;;;5096166;28;20175;-75
2023/12/19 04:07:41;;;;;;;2.80;1.20;;;;;;;;;;5116692;27;20197;-75
2023/12/19 04:10:06;;;;;;;1.93;1.37;;;;;;;;;;5118160;27;20219;-75
2023/12/19 04:12:32;;;;;;;2.50;1.43;;;;;;;;;;5111718;27;20207;-75
2023/12/19 04:14:57;;;;;;;1.80;1.40;;;;;;;;;;5119162;27;20195;-75
2023/12/19 04:17:22;;;;;;;1.27;1.17;;;;;;;;;;5109915;27;20183;-75
2023/12/19 04:19:47;;;;;;;1.63;1.10;;;;;;;;;;5094929;28;20205;-75
2023/12/19 04:22:12;;;;;;;3.00;1.40;;;;;;;;;;5110655;27;20234;-75
2023/12/19 04:24:37;;;;;;;1.60;1.50;;;;;;;;;;5114929;27;20188;-75
2023/12/19 04:27:03;;;;;;;1.20;1.17;;;;;;;;;;5116278;27;20180;-75
2023/12/19 04:29:28;;;;;;;3.10;1.20;;;;;;;;;;5099259;28;20187;-75
2023/12/19 04:31:53;;;;;;;1.37;1.10;;;;;;;;;;5092219;27;20188;-75
2023/12/19 04:34:18;;;;;;;0.90;0.90;;;;;;;;;;5113340;27;20220;-75
2023/12/19 04:36:43;;;;;;;1.40;1.27;;;;;;;;;;5096488;27;20195;-75
2023/12/19 04:39:09;;;;;;;0.73;0.73;;;;;;;;;;5094583;28;20263;-75
2023/12/19 04:41:34;;;;;;;1.30;1.00;;;;;;;;;;5112111;27;20195;-75
2023/12/19 04:43:59;;;;;;;1.20;1.00;;;;;;;;;;5116951;27;20172;-75
2023/12/19 04:46:24;;;;;;;0.63;0.63;;;;;;;;;;5089060;28;20276;-75
2023/12/19 04:48:50;;;;;;;2.20;1.10;;;;;;;;;;5102898;27;20175;-75
2023/12/19 04:51:19;;;;;;;0.80;0.80;;;;;;;;;;5116871;27;20183;-75
2023/12/19 04:53:45;;;;;;;0.90;0.87;;;;;;;;;;5115726;27;20172;-75
2023/12/19 04:56:11;;;;;;;1.07;0.87;;;;;;;;;;5113082;27;20172;-75
2023/12/19 04:58:36;;;;;;;0.83;0.83;;;;;;;;;;5108685;27;20187;-75
2023/12/19 05:01:01;;;;;;;1.17;1.07;;;;;;;;;;5118063;27;20199;-75
2023/12/19 05:03:26;;;;;;;2.23;1.53;;;;;;;;;;5112015;27;20184;-75
2023/12/19 05:05:52;;;;;;;1.47;0.93;;;;;;;;;;5113751;27;20236;-75
2023/12/19 05:08:17;;;;;;;1.13;1.07;;;;;;;;;;5112034;27;20172;-75
2023/12/19 05:10:43;;;;;;;1.30;1.20;;;;;;;;;;5115080;27;20214;-75
2023/12/19 05:13:08;;;;;;;0.93;0.87;;;;;;;;;;5095189;28;20273;-75
2023/12/19 05:15:33;;;;;;;1.00;1.00;;;;;;;;;;5111183;27;20183;-75
2023/12/19 05:17:59;;;;;;;0.80;0.80;;;;;;;;;;5110859;27;20244;-75
2023/12/19 05:20:24;;;;;;;0.87;0.87;;;;;;;;;;5109257;27;20176;-75
2023/12/19 05:22:49;;;;;;;1.13;0.77;;;;;;;;;;5092298;28;20184;-75
2023/12/19 05:25:14;;;;;;;1.33;1.23;;;;;;;;;;5114920;27;20210;-75
2023/12/19 05:27:43;;;;;;;2.73;1.40;;;;;;;;;;5110660;27;20256;-75
2023/12/19 05:30:09;;;;;;;0.67;0.67;;;;;;;;;;5097060;28;20211;-75
2023/12/19 05:32:34;;;;;;;0.80;0.80;;;;;;;;;;5114656;27;20231;-77
2023/12/19 05:34:59;;;;;;;1.77;1.50;;;;;;;;;;5112533;27;20194;-75
2023/12/19 05:37:25;;;;;;;3.07;1.60;;;;;;;;;;5108290;28;20253;-75
2023/12/19 05:39:50;;;;;;;2.30;1.80;;;;;;;;;;5110393;27;20171;-75
2023/12/19 05:42:15;;;;;;;3.73;1.03;;;;;;;;;;5109445;27;20180;-75
2023/12/19 05:44:40;;;;;;;1.30;1.00;;;;;;;;;;5113739;27;20179;-75
2023/12/19 05:47:06;;;;;;;10.13;1.50;;;;;;;;;;5097274;27;20179;-75
2023/12/19 05:49:31;;;;;;;2.00;1.80;;;;;;;;;;5114176;27;20267;-75
2023/12/19 05:51:57;;;;;;;10.57;3.73;;;;;;;;;;5097515;28;20195;-75
2023/12/19 05:54:22;;;;;;;9.87;3.57;;;;;;;;;;5108317;27;20176;-75
2023/12/19 05:56:47;;;;;;;9.33;4.80;;;;;;;;;;5099414;27;20170;-75
2023/12/19 05:59:12;;;;;;;10.20;3.60;;;;;;;;;;5107664;27;20375;-75
2023/12/19 06:01:41;;;;;;;16.00;5.00;;;;;;;;;;5084287;28;20185;-75
2023/12/19 06:04:07;;;;;;;4.87;3.50;;;;;;;;;;5107285;27;20177;-75
2023/12/19 06:06:33;;;;;;;4.23;3.10;;;;;;;;;;5110372;27;20183;-75
2023/12/19 06:08:59;;;;;;;4.30;3.17;;;;;;;;;;5113562;27;20227;-75
2023/12/19 06:11:26;;;;;;;8.10;3.00;;;;;;;;;;5082749;28;20470;-75
2023/12/19 06:13:51;;;;;;;14.83;3.80;;;;;;;;;;5094465;28;20259;-75
2023/12/19 06:16:16;;;;;;;1.60;1.50;;;;;;;;;;5090148;28;20245;-75
2023/12/19 06:18:42;;;;;;;1.77;1.67;;;;;;;;;;5090757;28;20190;-75
2023/12/19 06:21:07;;;;;;;1.83;1.40;;;;;;;;;;5068102;28;20173;-75
2023/12/19 06:23:32;;;;;;;2.63;1.43;;;;;;;;;;5087387;28;20432;-75
2023/12/19 06:25:57;;;;;;;1.47;1.27;;;;;;;;;;5071439;28;20173;-75
2023/12/19 06:28:22;;;;;;;2.53;1.50;;;;;;;;;;5094460;28;20190;-75
2023/12/19 06:30:48;;;;;;;2.63;1.33;;;;;;;;;;5070998;28;20188;-75
2023/12/19 06:33:13;;;;;;;1.80;1.23;;;;;;;;;;5089874;28;20276;-75
2023/12/19 06:35:43;;;;;;;3.17;1.07;;;;;;;;;;5090416;28;20184;-76
2023/12/19 06:38:08;;;;;;;1.37;1.17;;;;;;;;;;5073253;28;20168;-75
2023/12/19 06:40:33;;;;;;;12.47;2.73;;;;;;;;;;5088927;28;20176;-75
2023/12/19 06:42:58;;;;;;;4.57;1.70;;;;;;;;;;5079936;28;20181;-76
2023/12/19 06:45:23;;;;;;;4.40;4.00;;;;;;;;;;5074447;28;20187;-77
2023/12/19 06:47:49;;;;;;;2.77;2.57;;;;;;;;;;5090227;28;20185;-75
2023/12/19 06:50:16;;;;;;;5.53;1.80;;;;;;;;;;5098151;28;20204;-75
2023/12/19 06:52:41;;;;;;;3.57;1.90;;;;;;;;;;5071240;28;20224;-76
2023/12/19 06:55:09;;;;;;;2.47;1.97;;;;;;;;;;5095279;28;20176;-76
2023/12/19 06:57:35;;;;;;;2.53;1.83;;;;;;;;;;5078677;28;20177;-76
2023/12/19 07:00:00;;;;;;;5.43;3.20;;;;;;;;;;5081948;28;20187;-76
2023/12/19 07:02:26;;;;;;;8.07;4.60;;;;;;;;;;5070478;28;20235;-76
2023/12/19 07:04:51;;;;;;;3.87;2.83;;;;;;;;;;5093573;28;20191;-76
2023/12/19 07:07:16;;;;;;;4.30;3.03;;;;;;;;;;5077633;28;20230;-76
2023/12/19 07:09:41;;;;;;;5.23;2.00;;;;;;;;;;5101033;27;20638;-77
2023/12/19 07:12:07;;;;;;;8.43;3.83;;;;;;;;;;5096883;27;20208;-76
2023/12/19 07:14:32;;;;;;;8.23;3.93;;;;;;;;;;5112857;27;20175;-78
2023/12/19 07:16:58;;;;;;;3.03;2.13;;;;;;;;;;5098950;27;20176;-78
2023/12/19 07:19:23;;;;;;;4.27;1.77;;;;;;;;;;5105537;28;20172;-75
2023/12/19 07:21:49;;;;;;;0.90;0.90;;;;;;;;;;5092908;28;20212;-75
2023/12/19 07:24:14;;;;;;;2.53;1.60;;;;;;;;;;5091159;28;20512;-78
2023/12/19 07:26:39;;;;;;;0.70;0.70;;;;;;;;;;5108629;28;20180;-78
2023/12/19 07:29:08;;;;;;;1.30;1.13;;;;;;;;;;5116044;27;20216;-78
2023/12/19 07:31:33;;;;;;;2.97;1.30;;;;;;;;;;5105242;28;20210;-77
2023/12/19 07:33:59;;;;;;;2.10;1.57;;;;;;;;;;5090562;28;20172;-78
2023/12/19 07:36:25;;;;;;;3.47;2.17;;;;;;;;;;5105499;28;20191;-78
2023/12/19 07:38:51;;;;;;;13.87;5.77;;;;;;;;;;5106003;28;20220;-78
2023/12/19 07:41:16;;;;;;;10.53;4.67;;;;;;;;;;5105142;28;20165;-78
2023/12/19 07:43:41;;;;;;;3.20;1.97;;;;;;;;;;5097778;28;20291;-77
2023/12/19 07:46:06;;;;;;;9.13;2.40;;;;;;;;;;5101516;28;20169;-76
2023/12/19 07:48:32;;;;;;;1.70;1.20;;;;;;;;;;5107658;28;20523;-78
2023/12/19 07:50:57;;;;;;;6.30;3.70;;;;;;;;;;5109259;28;20168;-77
2023/12/19 07:53:25;;;;;;;5.77;2.87;;;;;;;;;;5105839;28;20225;-77
2023/12/19 07:55:50;;;;;;;3.53;2.33;;;;;;;;;;5103724;28;20156;-77
2023/12/19 07:58:15;;;;;;;4.80;3.40;;;;;;;;;;5104528;28;20230;-76
2023/12/19 08:00:41;;;;;;;9.73;3.33;;;;;;;;;;5093934;28;20218;-77
2023/12/19 08:03:07;;;;;;;4.23;3.00;;;;;;;;;;5088838;28;20176;-78
2023/12/19 08:05:32;;;;;;;5.03;3.50;;;;;;;;;;5105839;28;20184;-77
2023/12/19 08:07:57;;;;;;;4.50;2.93;;;;;;;;;;5109364;28;20207;-77
2023/12/19 08:10:23;;;;;;;6.83;2.60;;;;;;;;;;5092564;28;20247;-78
2023/12/19 08:12:48;;;;;;;6.07;3.00;;;;;;;;;;5092120;28;20243;-78
2023/12/19 08:15:13;;;;;;;3.97;3.40;;;;;;;;;;5082452;28;20197;-78
2023/12/19 08:17:38;;;;;;;2.40;2.13;;;;;;;;;;5076273;28;20195;-78
2023/12/19 08:20:04;;;;;;;2.90;2.33;;;;;;;;;;5088722;28;20184;-77
2023/12/19 08:22:29;;;;;;;3.53;2.40;;;;;;;;;;5100131;28;20176;-77
2023/12/19 08:24:55;;;;;;;3.23;2.00;;;;;;;;;;5068975;28;20177;-78
2023/12/19 08:27:23;;;;;;;2.83;2.00;;;;;;;;;;5081508;28;20186;-78
2023/12/19 08:29:49;;;;;;;2.17;1.97;;;;;;;;;;5098429;28;20183;-78
2023/12/19 08:32:14;;;;;;;3.97;3.00;;;;;;;;;;5079705;28;20197;-78
2023/12/19 08:34:40;;;;;;;5.07;2.03;;;;;;;;;;5065474;28;20191;-78
2023/12/19 08:37:06;;;;;;;2.53;2.00;;;;;;;;;;5102305;28;20220;-77
2023/12/19 08:39:31;;;;;;;3.43;2.87;;;;;;;;;;5094715;28;20211;-78
2023/12/19 08:41:56;;;;;;;4.00;2.43;;;;;;;;;;5094967;28;20176;-78
2023/12/19 08:44:21;;;;;;;3.97;2.40;;;;;;;;;;5107501;28;20180;-79
2023/12/19 08:46:46;;;;;;;3.00;2.40;;;;;;;;;;5103242;27;20172;-77
2023/12/19 08:49:12;;;;;;;3.60;2.30;;;;;;;;;;5098455;28;20184;-78
2023/12/19 08:51:37;;;;;;;3.57;2.23;;;;;;;;;;5087161;28;20199;-78
2023/12/19 08:54:02;;;;;;;5.27;2.23;;;;;;;;;;5087886;28;20204;-77
2023/12/19 08:56:27;;;;;;;4.93;2.20;;;;;;;;;;5105569;27;20200;-79
2023/12/19 08:58:52;;;;;;;4.70;3.20;;;;;;;;;;5086985;28;20165;-78
2023/12/19 09:01:18;;;;;;;6.33;3.00;;;;;;;;;;5074960;28;20265;-79
2023/12/19 09:03:43;;;;;;;3.07;2.77;;;;;;;;;;5086465;28;20165;-79
2023/12/19 09:06:08;;;;;;;4.30;3.03;;;;;;;;;;5095749;28;20184;-81
2023/12/19 09:08:33;;;;;;;3.63;2.97;;;;;;;;;;5100626;27;20168;-79
2023/12/19 09:10:59;;;;;;;3.07;2.43;;;;;;;;;;5091543;28;20192;-78
2023/12/19 09:13:24;;;;;;;2.80;2.40;;;;;;;;;;5120072;27;20203;-76
2023/12/19 09:15:50;;;;;;;2.83;2.63;;;;;;;;;;5107026;28;20184;-78
2023/12/19 09:18:16;;;;;;;6.93;2.97;;;;;;;;;;5093296;28;20190;-78
2023/12/19 09:20:41;;;;;;;3.80;2.80;;;;;;;;;;5106994;27;20248;-80
2023/12/19 09:23:06;;;;;;;3.57;2.90;;;;;;;;;;5115336;27;20183;-77
2023/12/19 09:25:32;;;;;;;3.33;3.03;;;;;;;;;;5110435;27;20206;-78
2023/12/19 09:27:57;;;;;;;4.30;3.90;;;;;;;;;;5116058;27;20175;-76
2023/12/19 09:30:23;;;;;;;4.37;3.33;;;;;;;;;;5097192;27;20198;-79
2023/12/19 09:32:48;;;;;;;4.00;3.13;;;;;;;;;;5116430;27;20227;-79
2023/12/19 09:35:13;;;;;;;3.37;3.00;;;;;;;;;;5105856;28;20229;-79
2023/12/19 09:37:39;;;;;;;4.47;3.30;;;;;;;;;;5102318;27;20203;-79
2023/12/19 09:40:26;;;;;;;3.03;2.73;;;;;;;;;;5111232;27;20251;-78
2023/12/19 09:42:52;;;;;;;4.20;2.90;;;;;;;;;;5109065;27;20172;-78
2023/12/19 09:45:17;;;;;;;1.90;1.67;;;;;;;;;;5101531;27;20175;-79
2023/12/19 09:47:48;;;;;;;4.33;3.13;;;;;;;;;;5111685;27;20176;-79
2023/12/19 09:50:13;;;;;;;2.13;1.93;;;;;;;;;;5115684;27;20178;-79
2023/12/19 09:52:39;;;;;;;5.67;4.03;;;;;;;;;;5089693;28;20204;-79
2023/12/19 09:55:05;;;;;;;5.97;5.27;;;;;;;;;;5105007;27;20199;-80
2023/12/19 09:57:33;;;;;;;4.70;3.83;;;;;;;;;;5101310;27;20213;-78
2023/12/19 10:00:00;;;;;;;7.23;4.90;;;;;;;;;;5116538;27;20435;-78
2023/12/19 10:02:25;;;;;;;5.13;4.17;;;;;;;;;;5088943;28;20188;-75
2023/12/19 10:04:50;;;;;;;6.90;4.90;;;;;;;;;;5098566;27;20224;-79
2023/12/19 10:07:16;;;;;;;7.87;5.17;;;;;;;;;;5111467;27;20458;-78
2023/12/19 10:09:54;;;;;;;6.93;5.77;;;;;;;;;;5110495;27;20519;-79
2023/12/19 10:12:20;;;;;;;4.80;4.30;;;;;;;;;;5105574;28;20199;-79
2023/12/19 10:14:47;;;;;;;6.20;4.50;;;;;;;;;;5087911;28;20172;-78
2023/12/19 10:17:17;;;;;;;4.90;4.13;;;;;;;;;;5109624;28;20175;-77
2023/12/19 10:19:42;;;;;;;6.07;4.87;;;;;;;;;;5103772;28;20183;-79
2023/12/19 10:22:09;;;;;;;6.67;5.73;;;;;;;;;;5107287;27;20172;-78
2023/12/19 10:24:34;;;;;;;6.37;4.53;;;;;;;;;;5087480;28;20176;-76
2023/12/19 10:27:00;;;;;;;6.80;5.83;;;;;;;;;;5106683;28;20256;-79
2023/12/19 10:29:26;;;;;;;6.67;5.53;;;;;;;;;;5091360;28;20171;-79
2023/12/19 10:31:51;;;;;;;9.90;6.70;;;;;;;;;;5087460;28;20200;-79
2023/12/19 10:34:17;;;;;;;6.57;5.67;;;;;;;;;;5107856;28;20225;-78
2023/12/19 10:36:43;;;;;;;10.40;6.90;;;;;;;;;;5106292;28;20215;-78
2023/12/19 10:39:11;;;;;;;6.27;5.67;;;;;;;;;;5103978;28;20157;-79
2023/12/19 10:41:39;;;;;;;6.77;5.33;;;;;;;;;;5106039;28;20188;-79
2023/12/19 10:44:05;;;;;;;6.17;5.33;;;;;;;;;;5107411;28;20176;-78
2023/12/19 10:46:30;;;;;;;8.60;5.53;;;;;;;;;;5104776;27;20172;-77
2023/12/19 10:48:59;;;;;;;19.13;17.73;;;;;;;;;;5095722;28;20172;-79
2023/12/19 10:51:32;;;;;;;7.93;5.43;;;;;;;;;;5087772;27;20203;-79
2023/12/19 10:54:06;;;;;;;6.90;4.90;;;;;;;;;;5090404;28;20171;-79
2023/12/19 10:56:34;;;;;;;8.37;6.03;;;;;;;;;;5104386;28;20172;-76
2023/12/19 10:59:01;;;;;;;11.50;5.57;;;;;;;;;;5102635;27;20175;-79
2023/12/19 11:01:32;;;;;;;5.97;4.90;;;;;;;;;;5103987;27;20172;-79
2023/12/19 11:03:59;;;;;;;6.10;5.30;;;;;;;;;;5101331;28;20334;-79
2023/12/19 11:06:27;;;;;;;7.87;6.03;;;;;;;;;;5104062;28;20183;-78
2023/12/19 11:08:55;;;;;;;7.50;5.80;;;;;;;;;;5101538;28;20304;-78
2023/12/19 11:11:22;;;;;;;6.83;5.83;;;;;;;;;;5103567;28;20175;-79
2023/12/19 11:13:48;;;;;;;7.47;5.90;;;;;;;;;;5105980;28;20202;-78
2023/12/19 11:16:22;;;;;;;8.43;6.07;;;;;;;;;;5104982;28;20267;-79
2023/12/19 11:18:50;;;;;;;6.20;5.60;;;;;;;;;;5097081;28;20187;-78
2023/12/19 11:21:21;;;;;;;5.87;5.27;;;;;;;;;;5098555;28;20156;-79
2023/12/19 11:23:59;;;;;;;6.60;5.87;;;;;;;;;;5082553;28;20226;-79
2023/12/19 11:26:27;;;;;;;7.77;5.00;;;;;;;;;;5100895;28;20176;-78
2023/12/19 11:28:52;;;;;;;8.27;5.80;;;;;;;;;;5097938;28;20676;-77
2023/12/19 11:31:30;;;;;;;7.57;5.37;;;;;;;;;;5103152;28;20168;-77
2023/12/19 11:33:58;;;;;;;8.10;6.50;;;;;;;;;;5086281;28;20171;-77
2023/12/19 11:36:24;;;;;;;10.37;7.70;;;;;;;;;;5086668;28;20196;-78
2023/12/19 11:38:49;;;;;;;8.37;7.33;;;;;;;;;;5082022;28;20180;-79
2023/12/19 11:41:47;;;;;;;8.00;6.97;;;;;;;;;;5105015;28;20259;-78
2023/12/19 11:44:31;;;;;;;17.17;10.97;;;;;;;;;;5068259;28;20183;-78
2023/12/19 11:47:15;;;;;;;9.20;6.87;;;;;;;;;;5101135;28;20252;-76
2023/12/19 11:49:41;;;;;;;9.50;7.53;;;;;;;;;;5080223;28;20236;-78
2023/12/19 11:52:06;;;;;;;15.17;10.93;;;;;;;;;;5083509;28;20291;-78
2023/12/19 11:54:31;;;;;;;9.60;7.30;;;;;;;;;;5101572;28;20180;-77
2023/12/19 11:56:58;;;;;;;7.70;6.53;;;;;;;;;;5096207;28;20172;-78
2023/12/19 11:59:24;;;;;;;10.57;6.33;;;;;;;;;;5098171;28;20160;-76
2023/12/19 12:01:49;;;;;;;9.30;6.90;;;;;;;;;;5102476;28;20184;-78
2023/12/19 12:04:14;;;;;;;11.97;7.47;;;;;;;;;;5089040;28;20172;-78
2023/12/19 12:06:41;;;;;;;7.90;6.57;;;;;;;;;;5104111;28;20274;-78
2023/12/19 12:09:07;;;;;;;8.80;7.80;;;;;;;;;;5104761;28;20216;-78
2023/12/19 12:11:58;;;;;;;8.10;7.00;;;;;;;;;;5110954;28;20205;-75
2023/12/19 12:14:24;;;;;;;10.90;8.57;;;;;;;;;;5109430;28;20180;-77
2023/12/19 12:16:51;;;;;;;11.30;7.13;;;;;;;;;;5108866;27;20182;-76
2023/12/19 12:19:18;;;;;;;8.03;5.90;;;;;;;;;;5113627;27;20270;-78
2023/12/19 12:21:47;;;;;;;12.23;9.50;;;;;;;;;;5096207;28;20228;-78
2023/12/19 12:24:16;;;;;;;10.73;8.30;;;;;;;;;;5115045;27;20269;-77
2023/12/19 12:26:41;;;;;;;11.87;9.30;;;;;;;;;;5098582;27;20178;-75
2023/12/19 12:29:07;;;;;;;11.93;9.20;;;;;;;;;;5110325;27;20172;-78
2023/12/19 12:31:32;;;;;;;9.47;7.73;;;;;;;;;;5113737;27;20187;-78
2023/12/19 12:34:00;;;;;;;8.47;7.27;;;;;;;;;;5110381;27;20170;-78
2023/12/19 12:36:25;;;;;;;7.70;6.90;;;;;;;;;;5096369;28;20192;-80
2023/12/19 12:38:54;;;;;;;8.27;6.97;;;;;;;;;;5108349;27;20230;-78
2023/12/19 12:41:20;;;;;;;8.50;7.00;;;;;;;;;;5096918;28;20172;-77
2023/12/19 12:43:51;;;;;;;9.10;7.10;;;;;;;;;;5092238;27;20211;-78
2023/12/19 12:46:19;;;;;;;9.73;6.93;;;;;;;;;;5088844;28;20176;-77
2023/12/19 12:48:53;;;;;;;11.87;8.80;;;;;;;;;;5106364;27;20180;-78
2023/12/19 12:51:19;;;;;;;18.90;11.47;;;;;;;;;;5118532;27;20175;-78
2023/12/19 12:53:44;;;;;;;14.27;10.83;;;;;;;;;;5110021;27;20184;-79
2023/12/19 12:56:15;;;;;;;15.60;12.10;;;;;;;;;;5111677;27;20203;-78
2023/12/19 12:58:41;;;;;;;12.47;9.50;;;;;;;;;;5094018;27;20168;-80
2023/12/19 13:01:07;;;;;;;15.80;11.80;;;;;;;;;;5105047;27;20191;-78
2023/12/19 13:03:32;;;;;;;21.00;12.40;;;;;;;;;;5117297;27;20176;-77
2023/12/19 13:06:01;;;;;;;12.17;8.17;;;;;;;;;;5111168;27;20179;-77
2023/12/19 13:08:27;;;;;;;11.13;8.13;;;;;;;;;;5083975;28;20233;-78
2023/12/19 13:10:52;;;;;;;14.77;12.63;;;;;;;;;;5111905;27;20192;-78
2023/12/19 13:13:17;;;;;;;11.20;8.20;;;;;;;;;;5087280;28;20316;-78
2023/12/19 13:15:42;;;;;;;10.77;8.57;;;;;;;;;;5109214;27;20177;-77
2023/12/19 13:18:08;;;;;;;10.27;7.30;;;;;;;;;;5090461;27;20266;-78
2023/12/19 13:20:34;;;;;;;11.20;8.93;;;;;;;;;;5105836;27;20441;-77
2023/12/19 13:23:00;;;;;;;11.30;8.60;;;;;;;;;;5119148;27;20179;-77
2023/12/19 13:25:27;;;;;;;12.53;10.23;;;;;;;;;;5106940;27;20198;-77
2023/12/19 13:27:52;;;;;;;13.57;10.07;;;;;;;;;;5097502;28;20279;-77
2023/12/19 13:30:17;;;;;;;12.37;8.43;;;;;;;;;;5108950;27;20677;-76
2023/12/19 13:32:42;;;;;;;13.30;10.00;;;;;;;;;;5088582;27;20192;-78
2023/12/19 13:35:08;;;;;;;10.83;8.07;;;;;;;;;;5107503;27;20196;-77
2023/12/19 13:37:33;;;;;;;15.43;9.70;;;;;;;;;;5107214;27;20214;-77
2023/12/19 13:39:59;;;;;;;11.53;9.40;;;;;;;;;;5092062;27;20172;-78
2023/12/19 13:42:24;;;;;;;10.67;8.03;;;;;;;;;;5084935;28;20180;-77
2023/12/19 13:44:49;;;;;;;10.87;7.57;;;;;;;;;;5110860;27;20233;-78
2023/12/19 13:47:15;;;;;;;8.13;6.60;;;;;;;;;;5112976;27;20180;-76
2023/12/19 13:49:40;;;;;;;9.00;6.83;;;;;;;;;;5093963;28;20271;-80
2023/12/19 13:52:05;;;;;;;8.30;6.63;;;;;;;;;;5102063;27;20187;-79
2023/12/19 13:54:30;;;;;;;8.30;7.03;;;;;;;;;;5094195;28;20237;-78
2023/12/19 13:56:56;;;;;;;8.90;6.47;;;;;;;;;;5106391;27;20189;-79
2023/12/19 13:59:22;;;;;;;12.17;6.90;;;;;;;;;;5115035;27;20185;-79
2023/12/19 14:01:47;;;;;;;7.40;6.17;;;;;;;;;;5117178;27;20176;-78
2023/12/19 14:04:13;;;;;;;11.67;7.63;;;;;;;;;;5097814;28;20183;-78
2023/12/19 14:06:38;;;;;;;11.13;7.10;;;;;;;;;;5104923;27;20267;-78
2023/12/19 14:09:03;;;;;;;7.20;6.50;;;;;;;;;;5100324;28;20264;-79
2023/12/19 14:11:29;;;;;;;8.10;6.47;;;;;;;;;;5100763;28;20173;-76
2023/12/19 14:13:54;;;;;;;7.57;6.17;;;;;;;;;;5096368;28;20172;-78
2023/12/19 14:16:19;;;;;;;8.43;6.50;;;;;;;;;;5110155;27;20176;-78
2023/12/19 14:18:44;;;;;;;7.27;6.20;;;;;;;;;;5102315;27;20220;-79
2023/12/19 14:21:10;;;;;;;6.67;5.50;;;;;;;;;;5085510;27;20208;-75
2023/12/19 14:23:35;;;;;;;6.60;5.60;;;;;;;;;;5092828;28;20191;-78
2023/12/19 14:26:00;;;;;;;6.90;6.17;;;;;;;;;;5103712;27;20222;-79
2023/12/19 14:28:26;;;;;;;8.47;6.40;;;;;;;;;;5111100;27;20184;-79
2023/12/19 14:30:51;;;;;;;6.30;5.60;;;;;;;;;;5109090;27;20188;-79
2023/12/19 14:33:17;;;;;;;9.67;7.20;;;;;;;;;;5090909;28;20210;-78